Time;durP1;ratioP1;P1;durP2;ratioP2;P2;SDS_P1;SDS_P2;PMS_P1;PMS_P2;Temp;Humidity;BMP_temperature;BMP_pressure;BME280_temperature;BME280_humidity;BME280_pressure;Samples;Min_cycle;Max_cycle;Signal;HPM_P1;HPM_P2
2022/01/02 00:00:33;;;;;;;20.13;13.73;;;6.50;47.90;;;;;;5043795;28;20540;-67
2022/01/02 00:03:25;;;;;;;20.77;13.07;;;6.50;48.00;;;;;;5044748;28;20056;-68
2022/01/02 00:06:16;;;;;;;21.25;13.48;;;6.50;47.50;;;;;;5047442;28;20048;-68
2022/01/02 00:09:05;;;;;;;22.33;14.07;;;6.30;47.00;;;;;;5072801;28;20052;-68
2022/01/02 00:11:57;;;;;;;22.08;13.68;;;6.30;47.90;;;;;;5048046;28;20260;-68
2022/01/02 00:14:46;;;;;;;21.77;14.00;;;6.20;47.80;;;;;;5041005;28;20172;-68
2022/01/02 00:17:32;;;;;;;18.52;13.27;;;6.30;48.20;;;;;;5065192;28;20041;-67
2022/01/02 00:20:21;;;;;;;21.00;14.30;;;6.20;47.70;;;;;;5063125;28;20561;-68
2022/01/02 00:23:09;;;;;;;21.63;12.80;;;6.30;48.10;;;;;;5062900;28;20381;-68
2022/01/02 00:26:03;;;;;;;18.13;13.02;;;6.30;47.30;;;;;;5063567;28;20217;-68
2022/01/02 00:28:50;;;;;;;19.13;12.73;;;6.30;47.30;;;;;;5058605;28;20574;-68
2022/01/02 00:31:37;;;;;;;20.30;13.27;;;6.20;47.10;;;;;;5048367;28;20037;-69
2022/01/02 00:34:24;;;;;;;22.17;12.98;;;6.20;47.20;;;;;;5044642;28;20397;-67
2022/01/02 00:37:11;;;;;;;20.08;13.70;;;6.20;47.30;;;;;;5044541;28;20040;-68
2022/01/02 00:39:59;;;;;;;21.58;12.57;;;6.30;47.30;;;;;;5047586;28;20052;-67
2022/01/02 00:42:46;;;;;;;21.65;13.23;;;6.20;46.70;;;;;;5045640;28;20045;-68
2022/01/02 00:45:44;;;;;;;20.40;12.98;;;6.30;47.00;;;;;;5045170;28;20044;-68
2022/01/02 00:48:35;;;;;;;24.48;14.27;;;6.20;46.00;;;;;;5062384;28;20082;-68
2022/01/02 00:51:32;;;;;;;19.13;12.48;;;6.20;47.00;;;;;;5060126;28;20052;-69
2022/01/02 00:54:22;;;;;;;18.95;12.75;;;6.10;46.60;;;;;;5044943;28;20053;-68
2022/01/02 00:57:16;;;;;;;18.65;12.40;;;6.10;46.90;;;;;;5064966;28;20090;-68
2022/01/02 01:00:08;;;;;;;16.80;11.98;;;6.10;47.40;;;;;;5042646;28;20141;-67
2022/01/02 01:02:56;;;;;;;18.92;12.85;;;6.10;46.80;;;;;;5068205;28;20067;-68
2022/01/02 01:05:45;;;;;;;20.90;12.73;;;6.10;46.70;;;;;;5067989;28;20040;-67
2022/01/02 01:08:32;;;;;;;16.83;12.30;;;6.10;47.20;;;;;;5066482;28;20048;-67
2022/01/02 01:11:19;;;;;;;18.98;11.52;;;6.10;46.90;;;;;;5049710;28;20052;-68
2022/01/02 01:14:07;;;;;;;19.83;11.55;;;6.10;47.20;;;;;;5044081;28;20090;-68
2022/01/02 01:16:54;;;;;;;17.67;12.65;;;6.10;47.00;;;;;;5050639;28;20050;-67
2022/01/02 01:19:41;;;;;;;18.55;12.73;;;6.00;46.80;;;;;;5040412;28;20102;-67
2022/01/02 01:22:27;;;;;;;18.23;13.32;;;6.10;47.20;;;;;;5041038;28;20057;-68
2022/01/02 01:25:16;;;;;;;18.80;11.52;;;6.10;47.20;;;;;;5047596;28;20124;-68
2022/01/02 01:28:03;;;;;;;20.58;12.48;;;6.10;47.10;;;;;;5047892;28;20127;-67
2022/01/02 01:30:51;;;;;;;17.75;11.68;;;6.00;46.60;;;;;;5039358;28;20037;-70
2022/01/02 01:33:37;;;;;;;19.20;12.48;;;6.00;47.50;;;;;;5040441;28;20118;-68
2022/01/02 01:36:24;;;;;;;20.50;12.85;;;6.00;47.60;;;;;;5042814;28;20044;-67
2022/01/02 01:39:11;;;;;;;19.27;12.55;;;6.00;46.90;;;;;;5047959;28;20127;-68
2022/01/02 01:42:06;;;;;;;17.27;11.90;;;5.90;46.60;;;;;;5041704;28;20044;-68
2022/01/02 01:45:28;;;;;;;;;;;5.90;46.90;;;;;;5043337;28;20114;-67
2022/01/02 01:48:03;;;;;;;19.13;12.45;;;5.90;47.50;;;;;;5043107;28;19920;-67
2022/01/02 01:50:49;;;;;;;20.92;12.07;;;5.80;46.80;;;;;;5044595;28;20041;-67
2022/01/02 01:53:36;;;;;;;16.65;11.80;;;5.80;47.00;;;;;;5042999;28;20135;-67
2022/01/02 01:56:23;;;;;;;18.65;11.90;;;5.80;47.30;;;;;;5042212;28;20037;-68
2022/01/02 01:59:11;;;;;;;19.75;12.73;;;5.70;46.90;;;;;;5047127;28;20052;-68
2022/01/02 02:01:57;;;;;;;18.13;12.20;;;5.70;47.00;;;;;;5044664;28;20046;-68
2022/01/02 02:04:45;;;;;;;16.77;11.60;;;5.70;47.20;;;;;;5044345;28;20098;-68
2022/01/02 02:07:39;;;;;;;21.17;13.63;;;5.60;47.50;;;;;;5043106;28;20043;-67
2022/01/02 02:10:33;;;;;;;18.60;12.65;;;5.70;47.00;;;;;;5042912;28;20049;-68
2022/01/02 02:13:20;;;;;;;19.38;12.43;;;5.60;46.60;;;;;;5046544;28;20040;-68
2022/01/02 02:16:06;;;;;;;17.90;11.93;;;5.70;46.90;;;;;;5044170;28;20048;-68
2022/01/02 02:18:53;;;;;;;18.83;12.02;;;5.70;46.40;;;;;;5042398;28;20048;-69
2022/01/02 02:21:41;;;;;;;22.40;12.30;;;5.70;46.00;;;;;;5039523;28;20512;-68
2022/01/02 02:24:31;;;;;;;16.95;11.80;;;5.70;45.50;;;;;;5045761;28;20045;-67
2022/01/02 02:27:23;;;;;;;18.55;12.20;;;5.60;45.10;;;;;;5042962;28;20041;-68
2022/01/02 02:30:10;;;;;;;21.08;12.30;;;5.70;44.70;;;;;;5039119;28;20052;-68
2022/01/02 02:32:58;;;;;;;15.98;11.07;;;5.70;44.60;;;;;;5042113;28;20080;-68
2022/01/02 02:35:48;;;;;;;17.58;11.38;;;5.60;43.50;;;;;;5044121;28;20045;-68
2022/01/02 02:38:38;;;;;;;17.95;11.27;;;5.50;43.90;;;;;;5043498;28;20047;-68
2022/01/02 02:41:30;;;;;;;16.13;10.85;;;5.60;43.90;;;;;;5038053;28;20049;-68
2022/01/02 02:44:31;;;;;;;18.45;11.68;;;5.50;43.90;;;;;;5040695;28;20045;-68
2022/01/02 02:50:22;;;;;;;21.00;11.93;;;5.50;44.00;;;;;;5048137;28;20051;-67
2022/01/02 02:53:09;;;;;;;16.23;10.77;;;5.50;43.80;;;;;;5043224;28;20080;-68
2022/01/02 02:55:58;;;;;;;18.42;10.15;;;5.50;44.20;;;;;;5059655;28;20036;-68
2022/01/02 02:58:49;;;;;;;15.32;9.90;;;5.50;43.60;;;;;;5062202;28;20048;-67
2022/01/02 03:01:37;;;;;;;16.20;9.73;;;5.50;42.70;;;;;;5044713;28;20045;-68
2022/01/02 03:04:24;;;;;;;16.67;10.27;;;5.50;42.60;;;;;;5038864;28;20170;-68
2022/01/02 03:07:10;;;;;;;14.55;9.23;;;5.60;42.50;;;;;;5045127;28;20436;-68
2022/01/02 03:10:00;;;;;;;16.55;10.07;;;5.70;40.50;;;;;;5047526;28;20067;-69
2022/01/02 03:12:47;;;;;;;18.30;10.65;;;5.70;39.30;;;;;;5045376;28;20041;-69
2022/01/02 03:15:34;;;;;;;14.38;9.98;;;5.70;38.50;;;;;;5044020;28;20496;-68
2022/01/02 03:18:20;;;;;;;14.35;10.13;;;5.80;37.70;;;;;;5041911;28;20393;-69
2022/01/02 03:21:07;;;;;;;16.63;11.95;;;5.80;37.00;;;;;;5041594;28;20421;-67
2022/01/02 03:23:54;;;;;;;22.48;14.07;;;5.70;36.30;;;;;;5041732;28;20106;-68
2022/01/02 03:26:41;;;;;;;16.27;11.13;;;5.70;36.60;;;;;;5034911;28;20041;-68
2022/01/02 03:29:29;;;;;;;19.73;11.82;;;5.60;36.70;;;;;;5040018;28;20048;-67
2022/01/02 03:32:16;;;;;;;15.52;9.35;;;5.50;37.30;;;;;;5048818;28;20041;-68
2022/01/02 03:35:03;;;;;;;14.70;9.93;;;5.50;37.70;;;;;;5045005;28;20527;-68
2022/01/02 03:37:50;;;;;;;18.88;10.60;;;5.40;38.40;;;;;;5039843;28;20067;-68
2022/01/02 03:40:39;;;;;;;16.77;10.50;;;5.40;38.40;;;;;;5040631;28;20813;-68
2022/01/02 03:43:26;;;;;;;14.52;9.88;;;5.40;38.40;;;;;;5045012;28;20049;-68
2022/01/02 03:46:15;;;;;;;13.25;9.68;;;5.40;39.00;;;;;;5044095;28;20045;-68
2022/01/02 03:49:05;;;;;;;15.02;10.70;;;5.30;38.60;;;;;;5049724;28;20412;-68
2022/01/02 03:51:52;;;;;;;14.05;9.95;;;5.40;38.80;;;;;;5045773;28;20052;-68
2022/01/02 03:54:38;;;;;;;15.32;10.63;;;5.30;39.00;;;;;;5048079;28;20539;-68
2022/01/02 03:57:25;;;;;;;15.43;10.65;;;5.20;39.10;;;;;;5045053;28;20033;-68
2022/01/02 04:00:14;;;;;;;15.00;9.93;;;5.20;40.30;;;;;;5046098;28;20049;-67
2022/01/02 04:03:03;;;;;;;14.73;9.98;;;5.20;40.80;;;;;;5048057;28;20040;-68
2022/01/02 04:05:50;;;;;;;14.18;9.32;;;5.30;39.90;;;;;;5046771;28;20049;-68
2022/01/02 04:08:36;;;;;;;14.85;9.73;;;5.20;39.40;;;;;;5046085;28;20037;-68
2022/01/02 04:11:23;;;;;;;15.00;9.35;;;5.20;39.00;;;;;;5037511;28;20049;-68
2022/01/02 04:14:09;;;;;;;15.30;10.02;;;5.20;39.80;;;;;;5048269;28;20493;-68
2022/01/02 04:16:56;;;;;;;12.52;8.68;;;5.10;39.30;;;;;;5045516;28;20053;-68
2022/01/02 04:19:44;;;;;;;16.30;9.90;;;5.20;39.80;;;;;;5041773;28;20072;-67
2022/01/02 04:22:30;;;;;;;13.05;9.02;;;5.10;39.50;;;;;;5048608;28;20049;-68
2022/01/02 04:25:17;;;;;;;15.10;9.60;;;5.20;40.00;;;;;;5044807;28;20049;-68
2022/01/02 04:28:04;;;;;;;11.88;9.32;;;5.20;39.50;;;;;;5047823;28;20040;-68
2022/01/02 04:30:50;;;;;;;18.45;10.07;;;5.20;39.20;;;;;;5042657;28;20084;-67
2022/01/02 04:33:38;;;;;;;13.13;9.15;;;5.10;39.60;;;;;;5043391;28;20048;-67
2022/01/02 04:36:26;;;;;;;15.38;11.00;;;5.10;39.90;;;;;;5061395;28;20049;-69
2022/01/02 04:39:12;;;;;;;17.65;11.32;;;5.00;40.50;;;;;;5051435;28;20041;-68
2022/01/02 04:42:01;;;;;;;17.83;11.10;;;5.10;41.10;;;;;;5041113;28;20046;-68
2022/01/02 04:44:48;;;;;;;15.00;9.52;;;5.10;39.70;;;;;;5051983;28;20072;-68
2022/01/02 04:47:35;;;;;;;15.73;9.73;;;5.10;40.40;;;;;;5046576;28;20496;-67
2022/01/02 04:50:22;;;;;;;14.98;9.90;;;5.20;39.20;;;;;;5041508;28;20060;-68
2022/01/02 04:53:10;;;;;;;14.02;9.38;;;5.30;37.50;;;;;;5038368;28;20060;-68
2022/01/02 04:55:58;;;;;;;14.32;9.48;;;5.30;37.70;;;;;;5045391;28;20045;-68
2022/01/02 04:58:45;;;;;;;14.30;9.55;;;5.30;37.50;;;;;;5044447;28;20033;-68
2022/01/02 05:01:35;;;;;;;13.35;8.77;;;5.30;37.10;;;;;;5038401;28;20069;-68
2022/01/02 05:04:22;;;;;;;13.63;8.70;;;5.30;37.20;;;;;;5042346;28;20052;-67
2022/01/02 05:07:08;;;;;;;14.48;9.38;;;5.40;37.00;;;;;;5047322;28;20047;-68
2022/01/02 05:09:57;;;;;;;13.52;8.15;;;5.40;36.60;;;;;;5041305;28;20170;-68
2022/01/02 05:12:43;;;;;;;11.85;7.88;;;5.40;36.70;;;;;;5041482;28;20058;-67
2022/01/02 05:15:30;;;;;;;12.18;7.40;;;5.50;36.20;;;;;;5042400;28;20496;-68
2022/01/02 05:18:17;;;;;;;13.32;8.52;;;5.50;35.30;;;;;;5065207;28;20093;-67
2022/01/02 05:21:04;;;;;;;10.25;7.75;;;5.50;35.40;;;;;;5074578;28;20592;-67
2022/01/02 05:23:50;;;;;;;11.15;7.88;;;5.50;35.70;;;;;;5061507;28;20515;-68
2022/01/02 05:26:38;;;;;;;15.07;8.98;;;5.50;36.30;;;;;;5057239;28;20198;-68
2022/01/02 05:29:27;;;;;;;13.77;8.20;;;5.40;36.50;;;;;;5045823;28;20064;-69
2022/01/02 05:32:13;;;;;;;10.00;7.18;;;5.40;36.90;;;;;;5041689;28;20045;-69
2022/01/02 05:35:02;;;;;;;13.68;8.25;;;5.40;37.00;;;;;;5039254;28;20409;-68
2022/01/02 05:37:48;;;;;;;13.98;8.30;;;5.40;37.80;;;;;;5048538;28;20037;-68
2022/01/02 05:40:36;;;;;;;11.80;7.75;;;5.40;37.90;;;;;;5043742;28;20048;-68
2022/01/02 05:43:24;;;;;;;14.80;8.32;;;5.40;37.80;;;;;;5043931;28;20047;-68
2022/01/02 05:46:11;;;;;;;15.73;8.80;;;5.50;37.70;;;;;;5042844;28;20655;-68
2022/01/02 05:48:57;;;;;;;12.23;7.65;;;5.50;37.30;;;;;;5047732;28;20094;-68
2022/01/02 05:51:45;;;;;;;12.43;8.15;;;5.50;36.20;;;;;;5042858;28;20119;-68
2022/01/02 05:54:31;;;;;;;11.73;7.95;;;5.60;35.70;;;;;;5040170;28;20065;-68
2022/01/02 05:57:17;;;;;;;13.15;8.27;;;5.60;35.00;;;;;;5042348;28;20525;-68
2022/01/02 06:00:08;;;;;;;13.30;7.82;;;5.50;34.90;;;;;;5047680;28;20153;-68
2022/01/02 06:02:55;;;;;;;10.88;7.40;;;5.60;34.40;;;;;;5043444;28;20049;-68
2022/01/02 06:05:41;;;;;;;12.07;7.50;;;5.60;34.40;;;;;;5042349;28;20045;-68
2022/01/02 06:08:28;;;;;;;11.15;7.60;;;5.70;34.40;;;;;;5046965;28;20056;-68
2022/01/02 06:11:15;;;;;;;11.70;7.05;;;5.70;34.40;;;;;;5044000;28;24194;-68
2022/01/02 06:14:01;;;;;;;11.50;7.32;;;5.70;33.30;;;;;;5043718;28;20037;-68
2022/01/02 06:16:49;;;;;;;11.05;7.22;;;5.70;33.10;;;;;;5039743;28;20037;-67
2022/01/02 06:19:36;;;;;;;10.27;6.95;;;5.70;32.10;;;;;;5043891;28;20049;-68
2022/01/02 06:22:23;;;;;;;10.95;7.10;;;5.70;32.10;;;;;;5049036;28;20058;-69
2022/01/02 06:25:10;;;;;;;10.05;6.75;;;5.70;32.00;;;;;;5042938;28;20068;-68
2022/01/02 06:27:56;;;;;;;11.48;7.28;;;5.70;31.40;;;;;;5044384;28;20045;-68
2022/01/02 06:30:42;;;;;;;10.68;6.97;;;5.60;31.80;;;;;;5044860;28;20055;-68
2022/01/02 06:33:30;;;;;;;10.55;6.88;;;5.60;32.00;;;;;;5046778;28;20060;-68
2022/01/02 06:36:18;;;;;;;10.52;7.15;;;5.70;31.60;;;;;;5044070;28;20048;-68
2022/01/02 06:39:05;;;;;;;10.25;6.90;;;5.70;31.00;;;;;;5060877;28;20732;-69
2022/01/02 06:41:55;;;;;;;10.30;6.63;;;5.60;30.70;;;;;;5052826;28;20059;-68
2022/01/02 06:44:41;;;;;;;12.27;7.25;;;5.60;30.20;;;;;;5048084;28;20045;-69
2022/01/02 06:47:28;;;;;;;10.95;7.38;;;5.60;31.00;;;;;;5042279;28;20092;-68
2022/01/02 06:50:16;;;;;;;10.63;7.30;;;5.50;30.70;;;;;;5058618;28;20041;-69
2022/01/02 06:53:03;;;;;;;10.45;6.97;;;5.50;31.40;;;;;;5050453;28;20048;-68
2022/01/02 06:55:50;;;;;;;12.27;7.13;;;5.50;32.00;;;;;;5052269;28;20041;-69
2022/01/02 06:58:38;;;;;;;10.85;7.07;;;5.50;31.40;;;;;;5048792;28;20037;-69
2022/01/02 07:01:26;;;;;;;10.48;7.07;;;5.50;30.60;;;;;;5047027;28;20128;-69
2022/01/02 07:04:13;;;;;;;10.32;7.40;;;5.60;30.00;;;;;;5056569;28;20041;-68
2022/01/02 07:07:04;;;;;;;10.20;7.53;;;5.60;30.00;;;;;;5055229;28;20041;-69
2022/01/02 07:09:50;;;;;;;11.00;7.32;;;5.50;31.00;;;;;;5050783;28;20474;-69
2022/01/02 07:12:37;;;;;;;10.70;7.50;;;5.50;32.00;;;;;;5049550;28;20123;-69
2022/01/02 07:15:23;;;;;;;12.00;7.38;;;5.50;30.50;;;;;;5054634;28;20640;-69
2022/01/02 07:18:10;;;;;;;9.23;6.68;;;5.50;30.10;;;;;;5054446;28;20087;-68
2022/01/02 07:20:56;;;;;;;9.88;7.00;;;5.60;30.50;;;;;;5049102;28;20050;-69
2022/01/02 07:23:44;;;;;;;10.20;6.85;;;5.60;30.10;;;;;;5051682;28;20060;-68
2022/01/02 07:26:31;;;;;;;10.23;7.00;;;5.50;30.10;;;;;;5058725;28;20538;-69
2022/01/02 07:29:19;;;;;;;8.05;5.95;;;5.60;29.80;;;;;;5050710;28;20041;-68
2022/01/02 07:32:05;;;;;;;10.82;6.97;;;5.60;29.40;;;;;;5042698;28;20045;-69
2022/01/02 07:34:52;;;;;;;9.00;5.97;;;5.60;29.40;;;;;;5049081;28;20526;-69
2022/01/02 07:37:39;;;;;;;9.65;6.63;;;5.60;29.90;;;;;;5047969;28;20045;-69
2022/01/02 07:40:27;;;;;;;10.20;6.05;;;5.60;29.30;;;;;;5042957;28;20473;-69
2022/01/02 07:43:13;;;;;;;8.45;5.80;;;5.60;29.40;;;;;;5042851;28;20112;-69
2022/01/02 07:46:01;;;;;;;10.85;7.20;;;5.60;29.50;;;;;;5046163;28;20049;-68
2022/01/02 07:48:48;;;;;;;10.68;6.32;;;5.60;29.60;;;;;;5050479;28;20048;-68
2022/01/02 07:51:34;;;;;;;9.85;6.68;;;5.60;29.10;;;;;;5042588;28;20561;-68
2022/01/02 07:54:21;;;;;;;9.10;5.80;;;5.60;28.80;;;;;;5046606;28;20044;-69
2022/01/02 07:57:09;;;;;;;9.00;6.13;;;5.70;28.50;;;;;;5051425;28;20045;-69
2022/01/02 07:59:56;;;;;;;10.10;5.97;;;5.70;28.20;;;;;;5046856;28;20053;-68
2022/01/02 08:02:54;;;;;;;8.40;5.72;;;5.80;28.90;;;;;;5044896;28;20080;-69
2022/01/02 08:05:41;;;;;;;8.68;6.07;;;5.80;29.10;;;;;;5042641;28;20049;-69
2022/01/02 08:08:28;;;;;;;10.32;6.68;;;5.70;28.90;;;;;;5047763;28;20508;-67
2022/01/02 08:11:16;;;;;;;9.30;6.28;;;5.80;28.70;;;;;;5044946;28;20048;-69
2022/01/02 08:14:24;;;;;;;10.02;6.28;;;5.80;28.50;;;;;;5042701;28;20421;-69
2022/01/02 08:17:11;;;;;;;9.25;5.90;;;5.90;28.10;;;;;;5046088;28;20085;-69
2022/01/02 08:19:57;;;;;;;8.93;5.95;;;6.00;28.20;;;;;;5047512;28;21752;-70
2022/01/02 08:22:47;;;;;;;8.68;6.03;;;6.10;27.10;;;;;;5046599;28;20190;-70
2022/01/02 08:25:36;;;;;;;9.57;5.90;;;6.20;26.40;;;;;;5042869;28;20048;-69
2022/01/02 08:28:25;;;;;;;9.88;6.00;;;6.20;26.90;;;;;;5044904;28;20194;-69
2022/01/02 08:31:13;;;;;;;9.05;6.07;;;6.30;26.30;;;;;;5045989;28;20132;-69
2022/01/02 08:34:00;;;;;;;8.55;5.93;;;6.40;25.30;;;;;;5047498;28;20056;-69
2022/01/02 08:36:46;;;;;;;10.00;6.03;;;6.40;23.90;;;;;;5045365;28;21295;-69
2022/01/02 08:39:33;;;;;;;11.70;6.60;;;6.50;24.00;;;;;;5044525;28;20115;-69
2022/01/02 08:42:20;;;;;;;7.65;5.78;;;6.60;23.50;;;;;;5046635;28;20043;-69
2022/01/02 08:45:09;;;;;;;11.23;6.57;;;6.70;23.20;;;;;;5046653;28;20045;-68
2022/01/02 08:47:58;;;;;;;9.63;6.28;;;6.80;22.10;;;;;;5043689;28;20186;-69
2022/01/02 08:50:45;;;;;;;8.45;5.85;;;6.90;22.00;;;;;;5042993;28;20059;-69
2022/01/02 08:53:37;;;;;;;8.00;5.70;;;7.00;20.90;;;;;;5058027;28;20040;-68
2022/01/02 08:56:24;;;;;;;10.38;5.30;;;7.10;19.40;;;;;;5065571;28;20521;-69
2022/01/02 08:59:11;;;;;;;8.63;5.38;;;7.20;19.00;;;;;;5065170;28;20048;-69
2022/01/02 09:01:57;;;;;;;7.30;5.25;;;7.30;19.70;;;;;;5064263;28;20040;-70
2022/01/02 09:04:45;;;;;;;8.05;4.75;;;7.30;18.80;;;;;;5065386;28;20121;-69
2022/01/02 09:07:32;;;;;;;7.57;5.25;;;7.30;18.70;;;;;;5048147;28;20497;-68
2022/01/02 09:10:19;;;;;;;7.50;5.55;;;7.40;17.80;;;;;;5042262;28;20045;-68
2022/01/02 09:13:07;;;;;;;8.27;5.50;;;7.40;17.00;;;;;;5043881;28;20770;-69
2022/01/02 09:15:57;;;;;;;7.90;5.70;;;7.50;17.20;;;;;;5046079;28;20063;-70
2022/01/02 09:18:44;;;;;;;8.27;5.60;;;7.50;17.50;;;;;;5044331;28;20057;-69
2022/01/02 09:21:32;;;;;;;8.40;6.18;;;7.50;17.50;;;;;;5040167;28;20049;-69
2022/01/02 09:24:18;;;;;;;9.20;6.25;;;7.50;17.00;;;;;;5044710;28;20045;-70
2022/01/02 09:27:06;;;;;;;7.75;5.60;;;7.60;17.10;;;;;;5045978;28;20142;-69
2022/01/02 09:29:54;;;;;;;10.52;5.82;;;7.60;16.90;;;;;;5042065;28;20409;-69
2022/01/02 09:32:41;;;;;;;8.68;6.22;;;7.70;16.10;;;;;;5044583;28;20049;-68
2022/01/02 09:35:28;;;;;;;11.88;6.93;;;7.90;16.00;;;;;;5046389;28;20125;-69
2022/01/02 09:38:16;;;;;;;11.15;6.95;;;8.00;14.90;;;;;;5046730;28;20322;-70
2022/01/02 09:41:05;;;;;;;11.07;7.22;;;8.10;13.20;;;;;;5044272;28;20100;-70
2022/01/02 09:43:53;;;;;;;9.00;6.18;;;8.20;13.70;;;;;;5043947;28;20133;-69
2022/01/02 09:46:41;;;;;;;7.55;5.38;;;8.20;12.90;;;;;;5058553;28;20868;-69
2022/01/02 09:49:30;;;;;;;7.60;5.35;;;8.20;12.60;;;;;;5049413;28;20056;-68
2022/01/02 09:52:19;;;;;;;9.52;5.35;;;8.20;12.50;;;;;;5043680;28;20059;-70
2022/01/02 09:54:55;;;;;;;6.90;5.30;;;8.10;12.20;;;;;;5030084;28;20044;-69
2022/01/02 09:57:24;;;;;;;8.70;6.10;;;8.10;12.30;;;;;;5050023;28;20061;-69
2022/01/02 09:59:53;;;;;;;8.25;5.38;;;8.20;12.90;;;;;;5041155;28;20045;-69
2022/01/02 10:02:22;;;;;;;7.72;5.95;;;8.10;13.20;;;;;;5052888;28;20086;-69
2022/01/02 10:05:02;;;;;;;8.10;5.65;;;8.10;12.90;;;;;;5070788;28;20041;-69
2022/01/02 10:07:33;;;;;;;6.90;5.35;;;8.20;13.80;;;;;;5063265;28;20043;-68
2022/01/02 10:10:10;;;;;;;7.55;5.43;;;8.20;12.90;;;;;;5061481;28;20070;-68
2022/01/02 10:12:38;;;;;;;8.68;5.88;;;8.30;13.20;;;;;;5067907;28;20039;-68
2022/01/02 10:15:20;;;;;;;6.85;5.32;;;8.30;13.00;;;;;;5061859;28;20063;-69
2022/01/02 10:18:02;;;;;;;7.75;5.43;;;8.30;12.90;;;;;;5062153;28;20037;-68
2022/01/02 10:20:33;;;;;;;7.88;5.07;;;8.20;13.70;;;;;;5061810;28;20059;-68
2022/01/02 10:23:16;;;;;;;9.13;6.07;;;8.20;13.10;;;;;;5065112;28;20051;-69
2022/01/02 10:25:50;;;;;;;7.60;5.07;;;8.20;13.90;;;;;;5061238;28;20174;-69
2022/01/02 10:28:26;;;;;;;9.85;5.38;;;8.20;12.80;;;;;;5064045;28;20131;-68
2022/01/02 10:30:55;;;;;;;9.25;5.25;;;8.20;14.10;;;;;;5063789;28;20045;-69
2022/01/02 10:33:24;;;;;;;7.32;5.88;;;8.10;15.40;;;;;;5043273;28;20040;-69
2022/01/02 10:36:00;;;;;;;8.85;5.90;;;8.10;16.20;;;;;;5042039;28;20055;-69
2022/01/02 10:38:29;;;;;;;8.27;6.30;;;8.20;14.60;;;;;;5051943;28;20064;-69
2022/01/02 10:41:01;;;;;;;14.30;9.55;;;8.20;14.30;;;;;;5046280;28;20169;-68
2022/01/02 10:43:31;;;;;;;10.55;6.80;;;8.30;14.30;;;;;;5051160;28;20126;-68
2022/01/02 10:46:03;;;;;;;10.15;5.78;;;8.30;14.10;;;;;;5051611;28;20451;-69
2022/01/02 10:48:37;;;;;;;7.55;5.30;;;8.30;14.40;;;;;;5047129;28;20098;-69
2022/01/02 10:51:08;;;;;;;6.70;5.13;;;8.30;11.10;;;;;;5048658;28;20053;-68
2022/01/02 10:53:39;;;;;;;7.82;5.68;;;8.40;11.20;;;;;;5054141;28;20048;-69
2022/01/02 10:56:08;;;;;;;9.68;6.47;;;8.40;11.10;;;;;;5049558;28;20066;-68
2022/01/02 10:58:38;;;;;;;7.45;5.22;;;8.40;11.70;;;;;;5050449;28;20063;-69
2022/01/02 11:01:07;;;;;;;10.32;5.63;;;8.40;11.70;;;;;;5050836;28;20233;-69
2022/01/02 11:03:36;;;;;;;7.30;5.38;;;8.50;11.20;;;;;;5049963;28;20067;-68
2022/01/02 11:06:09;;;;;;;8.18;5.35;;;8.60;10.60;;;;;;5050569;28;20056;-68
2022/01/02 11:08:42;;;;;;;8.48;5.60;;;8.70;10.40;;;;;;5053818;28;20049;-69
2022/01/02 11:11:11;;;;;;;9.52;5.88;;;8.70;10.80;;;;;;5047206;28;20052;-68
2022/01/02 11:13:40;;;;;;;6.70;5.15;;;8.80;9.90;;;;;;5052967;28;20052;-69
2022/01/02 11:16:08;;;;;;;8.75;5.85;;;8.80;10.00;;;;;;5051185;28;20041;-69
2022/01/02 11:18:36;;;;;;;8.23;5.22;;;8.90;10.80;;;;;;5049326;28;20533;-69
2022/01/02 11:21:11;;;;;;;10.20;5.95;;;8.90;10.00;;;;;;5062023;28;20174;-68
2022/01/02 11:23:50;;;;;;;7.25;5.40;;;8.90;9.40;;;;;;5062837;28;20049;-69
2022/01/02 11:26:28;;;;;;;7.13;5.05;;;8.90;10.00;;;;;;5046898;28;20260;-69
2022/01/02 11:29:13;;;;;;;7.65;5.38;;;9.00;9.40;;;;;;5055674;28;20121;-69
2022/01/02 11:31:43;;;;;;;8.63;5.88;;;9.10;8.80;;;;;;5068334;28;20056;-69
2022/01/02 11:34:24;;;;;;;7.60;5.70;;;9.20;8.30;;;;;;5051915;28;20078;-69
2022/01/02 11:36:53;;;;;;;9.65;5.80;;;9.30;8.50;;;;;;5048207;28;20493;-68
2022/01/02 11:39:21;;;;;;;7.40;5.43;;;9.20;8.40;;;;;;5050377;28;20036;-69
2022/01/02 11:41:52;;;;;;;7.22;5.50;;;9.20;8.00;;;;;;5047212;28;20067;-68
2022/01/02 11:44:22;;;;;;;8.73;5.75;;;9.20;8.00;;;;;;5056837;28;20055;-69
2022/01/02 11:46:52;;;;;;;8.18;5.68;;;9.20;8.00;;;;;;5075512;28;20048;-69
2022/01/02 11:49:28;;;;;;;7.32;5.55;;;9.20;8.00;;;;;;5063342;28;20120;-69
2022/01/02 11:52:08;;;;;;;7.55;5.40;;;9.30;7.60;;;;;;5063188;28;20045;-67
2022/01/02 11:54:46;;;;;;;6.65;4.70;;;9.30;7.40;;;;;;5071774;28;20055;-68
2022/01/02 11:57:53;;;;;;;8.82;5.55;;;9.30;6.70;;;;;;5067547;28;20127;-69
2022/01/02 12:00:45;;;;;;;9.75;5.82;;;9.40;7.50;;;;;;5062546;28;20040;-68
2022/01/02 12:03:51;;;;;;;7.65;5.30;;;9.40;7.40;;;;;;5045191;28;20064;-69
2022/01/02 12:06:34;;;;;;;10.80;5.55;;;9.40;7.60;;;;;;5046873;28;20049;-68
2022/01/02 12:09:04;;;;;;;8.25;5.45;;;9.40;7.80;;;;;;5050926;28;20148;-68
2022/01/02 12:11:48;;;;;;;8.85;5.53;;;9.40;8.50;;;;;;5041885;28;20084;-68
2022/01/02 12:14:23;;;;;;;10.95;6.78;;;9.40;7.60;;;;;;5044717;28;20042;-68
2022/01/02 12:17:12;;;;;;;12.18;7.63;;;9.50;7.40;;;;;;5048530;28;20045;-70
2022/01/02 12:20:05;;;;;;;10.65;6.47;;;9.60;7.50;;;;;;5045542;28;20067;-69
2022/01/02 12:22:44;;;;;;;11.35;6.55;;;9.90;4.80;;;;;;5057140;28;20036;-70
2022/01/02 12:25:14;;;;;;;6.82;5.25;;;10.00;4.10;;;;;;5047328;28;20048;-69
2022/01/02 12:27:55;;;;;;;13.45;4.97;;;10.10;4.10;;;;;;5047197;28;20570;-69
2022/01/02 12:30:24;;;;;;;9.70;5.22;;;10.20;3.70;;;;;;5042429;28;20091;-69
2022/01/02 12:32:57;;;;;;;6.40;4.88;;;10.40;3.10;;;;;;5057078;28;20067;-68
2022/01/02 12:35:25;;;;;;;8.63;5.13;;;10.40;2.70;;;;;;5058384;28;20116;-67
2022/01/02 12:38:04;;;;;;;8.75;5.15;;;10.50;3.20;;;;;;5042372;28;20151;-69
2022/01/02 12:40:39;;;;;;;8.18;4.85;;;10.60;4.20;;;;;;5042391;28;20099;-69
2022/01/02 12:43:08;;;;;;;4.95;3.40;;;10.70;3.90;;;;;;5071365;28;20044;-69
2022/01/02 12:45:36;;;;;;;4.93;2.63;;;11.20;1.00;;;;;;5060742;28;20563;-69
2022/01/02 12:48:05;;;;;;;4.25;1.98;;;11.70;1.00;;;;;;5064559;28;20785;-69
2022/01/02 12:50:37;;;;;;;2.58;1.60;;;12.00;1.00;;;;;;5044242;28;20741;-69
2022/01/02 12:53:05;;;;;;;2.35;1.55;;;12.50;1.00;;;;;;5044309;28;20051;-69
2022/01/02 12:55:34;;;;;;;2.90;1.63;;;13.10;1.00;;;;;;5025551;28;20114;-70
2022/01/02 12:58:04;;;;;;;3.33;1.75;;;13.30;1.00;;;;;;5049992;28;20059;-69
2022/01/02 13:00:32;;;;;;;3.70;2.15;;;13.40;1.00;;;;;;5039511;28;20073;-69
2022/01/02 13:03:00;;;;;;;4.20;2.05;;;13.70;1.00;;;;;;5044734;28;20068;-69
2022/01/02 13:05:29;;;;;;;4.05;2.20;;;13.70;1.00;;;;;;5045844;28;20080;-69
2022/01/02 13:08:01;;;;;;;3.65;2.00;;;13.80;1.00;;;;;;5043682;28;20483;-68
2022/01/02 13:10:29;;;;;;;3.85;1.58;;;13.90;1.00;;;;;;5042115;28;20045;-68
2022/01/02 13:12:57;;;;;;;2.00;1.58;;;14.00;1.00;;;;;;5046268;28;20036;-68
2022/01/02 13:15:26;;;;;;;2.90;1.50;;;13.90;1.00;;;;;;5071165;28;20032;-69
2022/01/02 13:18:00;;;;;;;1.87;1.40;;;13.80;1.00;;;;;;5048040;28;20048;-69
2022/01/02 13:20:43;;;;;;;6.35;1.50;;;14.00;1.00;;;;;;5043097;28;20461;-68
2022/01/02 13:23:11;;;;;;;2.55;1.67;;;14.00;1.00;;;;;;5043582;28;20063;-69
2022/01/02 13:25:42;;;;;;;3.28;1.50;;;14.20;1.00;;;;;;5045238;28;20049;-70
2022/01/02 13:28:12;;;;;;;2.90;1.30;;;14.20;1.00;;;;;;5050184;28;20049;-68
2022/01/02 13:30:49;;;;;;;3.95;1.30;;;14.10;1.00;;;;;;5041130;28;20072;-69
2022/01/02 13:33:18;;;;;;;3.90;1.55;;;14.20;1.00;;;;;;5044153;28;20036;-69
2022/01/02 13:35:48;;;;;;;2.22;1.70;;;14.30;1.00;;;;;;5046444;28;20468;-69
2022/01/02 13:38:17;;;;;;;5.00;1.88;;;14.30;1.00;;;;;;5044620;28;20682;-69
2022/01/02 13:40:46;;;;;;;2.35;1.65;;;14.20;1.00;;;;;;5041774;28;20389;-69
2022/01/02 13:43:16;;;;;;;5.38;2.08;;;14.30;1.00;;;;;;5047702;28;20033;-69
2022/01/02 13:45:46;;;;;;;6.47;2.20;;;14.20;1.00;;;;;;5039942;28;20061;-69
2022/01/02 13:48:17;;;;;;;2.25;1.50;;;14.20;1.00;;;;;;5044104;28;20049;-70
2022/01/02 13:50:48;;;;;;;3.45;1.88;;;14.30;1.00;;;;;;5043153;28;20128;-69
2022/01/02 13:53:19;;;;;;;3.13;1.73;;;14.30;1.00;;;;;;5046948;28;20132;-68
2022/01/02 13:55:49;;;;;;;4.28;1.70;;;14.40;1.00;;;;;;5045342;28;20559;-68
2022/01/02 13:58:21;;;;;;;5.68;1.63;;;14.50;1.00;;;;;;5029443;28;20041;-70
2022/01/02 14:00:51;;;;;;;3.47;1.80;;;14.50;1.00;;;;;;5044944;28;20044;-70
2022/01/02 14:03:32;;;;;;;2.53;1.38;;;14.40;1.00;;;;;;5059533;28;20049;-68
2022/01/02 14:06:03;;;;;;;2.78;1.42;;;14.40;1.00;;;;;;5051737;28;20396;-69
2022/01/02 14:08:38;;;;;;;4.20;1.80;;;14.50;1.00;;;;;;5056213;28;20035;-69
2022/01/02 14:11:09;;;;;;;4.18;1.95;;;14.20;1.00;;;;;;5056118;28;20060;-68
2022/01/02 14:14:03;;;;;;;3.53;2.00;;;14.20;1.00;;;;;;5048771;28;20538;-69
2022/01/02 14:16:46;;;;;;;2.85;2.00;;;14.10;1.00;;;;;;5048122;28;20053;-69